createdAt,value
2022-09-01T00:00:11.133Z,19.87
2022-09-01T00:03:12.650Z,19.79
2022-09-01T00:06:15.402Z,19.85
2022-09-01T00:09:19.571Z,19.82
2022-09-01T00:12:22.701Z,19.75
2022-09-01T00:15:24.664Z,19.68
2022-09-01T00:18:26.308Z,19.47
2022-09-01T00:21:41.778Z,19.39
2022-09-01T00:24:43.276Z,19.39
2022-09-01T00:27:44.784Z,19.34
2022-09-01T00:30:46.324Z,19.39
2022-09-01T00:33:48.652Z,19.48
2022-09-01T00:36:50.292Z,19.50
2022-09-01T00:39:51.737Z,19.53
2022-09-01T00:42:53.745Z,19.59
2022-09-01T00:45:57.795Z,19.63
2022-09-01T00:49:04.421Z,19.64
2022-09-01T00:52:11.502Z,19.64
2022-09-01T00:55:21.665Z,19.57
2022-09-01T00:58:23.460Z,19.56
2022-09-01T01:01:25.041Z,19.51
2022-09-01T01:04:26.542Z,19.50
2022-09-01T01:07:28.749Z,19.56
2022-09-01T01:10:33.288Z,19.56
2022-09-01T01:14:15.884Z,19.44
2022-09-01T01:17:20.434Z,19.42
2022-09-01T01:20:44.508Z,19.33
2022-09-01T01:24:09.911Z,19.27
2022-09-01T01:27:11.566Z,19.28
2022-09-01T01:30:14.296Z,19.36
2022-09-01T01:33:15.744Z,19.36
2022-09-01T01:36:36.208Z,19.30
2022-09-01T01:39:40.818Z,19.26
2022-09-01T01:42:47.901Z,19.25
2022-09-01T01:45:52.983Z,19.27
2022-09-01T01:48:58.778Z,19.33
2022-09-01T01:52:01.138Z,19.30
2022-09-01T01:55:12.392Z,19.30
2022-09-01T01:58:22.095Z,19.28
2022-09-01T02:01:28.675Z,19.20
2022-09-01T02:04:34.112Z,19.19
2022-09-01T02:07:43.547Z,19.20
2022-09-01T02:10:47.666Z,19.16
2022-09-01T02:13:49.642Z,19.16
2022-09-01T02:16:51.803Z,19.15
2022-09-01T02:19:57.399Z,19.11
2022-09-01T02:23:10.460Z,19.14
2022-09-01T02:26:17.204Z,19.07
2022-09-01T02:29:28.748Z,19.05
2022-09-01T02:32:30.202Z,18.98
2022-09-01T02:35:36.775Z,18.83
2022-09-01T02:38:46.072Z,18.81
2022-09-01T02:41:49.650Z,18.84
2022-09-01T02:44:55.100Z,18.82
2022-09-01T02:47:57.549Z,18.80
2022-09-01T02:51:01.927Z,18.87
2022-09-01T02:54:03.918Z,18.89
2022-09-01T02:57:08.987Z,18.92
2022-09-01T03:00:22.702Z,18.91
2022-09-01T03:03:25.407Z,18.94
2022-09-01T03:06:29.284Z,18.90
2022-09-01T03:09:32.639Z,18.86
2022-09-01T03:12:34.163Z,18.80
2022-09-01T03:15:37.363Z,18.78
2022-09-01T03:18:40.129Z,18.79
2022-09-01T03:21:44.872Z,18.80
2022-09-01T03:24:49.252Z,18.79
2022-09-01T03:27:52.446Z,18.79
2022-09-01T03:30:55.730Z,18.78
2022-09-01T03:33:58.289Z,18.75
2022-09-01T03:37:07.901Z,18.71
2022-09-01T03:40:10.545Z,18.68
2022-09-01T03:43:13.951Z,18.66
2022-09-01T03:46:22.130Z,18.66
2022-09-01T03:49:28.493Z,18.60
2022-09-01T03:52:31.583Z,18.47
2022-09-01T03:55:35.059Z,18.46
2022-09-01T03:58:37.028Z,18.45
2022-09-01T04:01:41.494Z,18.44
2022-09-01T04:04:43.639Z,18.43
2022-09-01T04:07:46.783Z,18.40
2022-09-01T04:10:54.425Z,18.42
2022-09-01T04:13:56.265Z,18.41
2022-09-01T04:17:16.516Z,18.38
2022-09-01T04:20:20.964Z,18.39
2022-09-01T04:23:33.489Z,18.35
2022-09-01T04:26:42.413Z,18.28
2022-09-01T04:29:46.681Z,18.25
2022-09-01T04:32:48.127Z,18.22
2022-09-01T04:35:51.279Z,18.22
2022-09-01T04:38:58.503Z,18.18
2022-09-01T04:42:03.155Z,18.20
2022-09-01T04:45:11.283Z,18.17
2022-09-01T04:48:16.224Z,18.17
2022-09-01T04:51:17.774Z,18.16
2022-09-01T04:54:32.208Z,18.17
2022-09-01T04:57:33.678Z,18.14
2022-09-01T05:00:35.282Z,18.15
2022-09-01T05:03:36.757Z,18.14
2022-09-01T05:06:52.961Z,18.10
2022-09-01T05:09:58.029Z,18.14
2022-09-01T05:13:20.037Z,18.10
2022-09-01T05:16:25.463Z,18.09
2022-09-01T05:19:30.829Z,18.02
2022-09-01T05:22:35.563Z,18.04
2022-09-01T05:25:44.082Z,18.10
2022-09-01T05:28:47.980Z,18.13
2022-09-01T05:31:50.661Z,18.15
2022-09-01T05:34:53.721Z,18.16
2022-09-01T05:37:55.738Z,18.20
2022-09-01T05:41:03.210Z,18.21
2022-09-01T05:44:07.998Z,18.25
2022-09-01T05:47:14.742Z,18.35
2022-09-01T05:50:23.653Z,18.46
2022-09-01T05:53:28.790Z,18.55
2022-09-01T05:56:31.576Z,18.58
2022-09-01T05:59:33.328Z,18.48
2022-09-01T06:02:51.634Z,18.50
2022-09-01T06:05:57.104Z,18.59
2022-09-01T06:08:58.909Z,18.75
2022-09-01T06:12:01.882Z,18.93
2022-09-01T06:15:03.908Z,19.02
2022-09-01T06:18:07.540Z,19.15
2022-09-01T06:21:15.116Z,19.30
2022-09-01T06:24:18.019Z,19.31
2022-09-01T06:27:20.273Z,19.34
2022-09-01T06:30:26.383Z,19.29
2022-09-01T06:33:35.993Z,19.22
2022-09-01T06:36:40.550Z,19.25
2022-09-01T06:39:43.984Z,19.32
2022-09-01T06:42:50.967Z,19.55
2022-09-01T06:45:54.628Z,19.52
2022-09-01T06:48:58.854Z,19.48
2022-09-01T06:52:02.894Z,19.50
2022-09-01T06:58:26.609Z,19.47
2022-09-01T07:01:29.073Z,19.51
2022-09-01T07:04:31.470Z,19.45
2022-09-01T07:18:21.291Z,19.76
2022-09-01T07:24:47.099Z,20.03
2022-09-01T07:28:37.937Z,20.06
2022-09-01T07:32:43.403Z,20.10
2022-09-01T07:35:11.915Z,20.18
2022-09-01T07:39:57.489Z,19.42
2022-09-01T07:45:27.626Z,20.23
2022-09-01T07:52:03.914Z,20.18
2022-09-01T07:55:08.623Z,20.15
2022-09-01T07:58:10.433Z,20.15
2022-09-01T08:01:18.746Z,20.23
2022-09-01T08:04:24.713Z,20.27
2022-09-01T08:07:26.840Z,20.36
2022-09-01T08:10:29.052Z,20.38
2022-09-01T08:13:31.305Z,20.52
2022-09-01T08:16:51.980Z,20.49
2022-09-01T08:19:54.123Z,20.52
2022-09-01T08:23:13.584Z,20.54
2022-09-01T08:26:17.381Z,20.83
2022-09-01T08:29:18.866Z,20.88
2022-09-01T08:32:21.636Z,20.82
2022-09-01T08:35:23.457Z,20.68
2022-09-01T08:38:24.963Z,20.70
2022-09-01T08:41:53.016Z,20.85
2022-09-01T08:45:23.390Z,20.81
2022-09-01T08:52:37.152Z,21.08
2022-09-01T08:55:45.041Z,21.14
2022-09-01T08:58:49.377Z,21.42
2022-09-01T09:02:29.528Z,21.48
2022-09-01T09:05:54.952Z,21.59
2022-09-01T09:09:03.457Z,21.64
2022-09-01T09:12:19.720Z,21.67
2022-09-01T09:15:40.115Z,21.76
2022-09-01T09:18:58.265Z,21.69
2022-09-01T09:22:02.478Z,21.76
2022-09-01T09:25:19.215Z,21.83
2022-09-01T09:28:21.801Z,21.68
2022-09-01T09:31:30.634Z,21.62
2022-09-01T09:34:38.612Z,21.43
2022-09-01T09:37:40.024Z,21.60
2022-09-01T09:41:14.337Z,21.65
2022-09-01T09:44:27.941Z,21.59
2022-09-01T09:47:45.387Z,21.69
2022-09-01T09:50:46.948Z,21.78
2022-09-01T09:53:50.595Z,21.92
2022-09-01T09:57:13.576Z,21.91
2022-09-01T10:00:33.984Z,22.21
2022-09-01T10:03:41.899Z,22.32
2022-09-01T10:06:47.627Z,22.37
2022-09-01T10:09:49.586Z,22.56
2022-09-01T10:12:55.622Z,22.62
2022-09-01T10:16:01.977Z,22.66
2022-09-01T10:19:12.589Z,22.77
2022-09-01T10:22:15.150Z,23.12
2022-09-01T10:25:22.931Z,23.03
2022-09-01T10:28:25.337Z,22.96
2022-09-01T10:31:29.551Z,22.83
2022-09-01T10:34:37.430Z,22.87
2022-09-01T10:37:41.326Z,22.82
2022-09-01T10:40:50.590Z,22.91
2022-09-01T10:43:52.241Z,23.14
2022-09-01T10:46:59.896Z,23.32
2022-09-01T10:50:35.369Z,23.46
2022-09-01T10:53:39.616Z,23.78
2022-09-01T10:56:53.355Z,23.68
2022-09-01T10:59:58.082Z,23.74
2022-09-01T11:06:42.374Z,23.93
2022-09-01T11:10:10.990Z,24.12
2022-09-01T11:13:35.974Z,24.41
2022-09-01T11:16:47.920Z,24.49
2022-09-01T11:19:55.516Z,24.71
2022-09-01T11:22:57.041Z,24.65
2022-09-01T11:26:22.634Z,24.88
2022-09-01T11:29:52.231Z,25.12
2022-09-01T11:33:02.728Z,25.10
2022-09-01T11:36:12.328Z,24.69
2022-09-01T11:39:20.795Z,24.65
2022-09-01T11:42:36.036Z,24.75
2022-09-01T11:45:50.943Z,24.88
2022-09-01T11:48:53.126Z,25.14
2022-09-01T11:51:55.516Z,25.30
2022-09-01T11:54:58.158Z,25.43
2022-09-01T11:58:01.209Z,25.53
2022-09-01T12:01:17.279Z,25.60
2022-09-01T12:04:26.212Z,25.67
2022-09-01T12:07:42.565Z,25.80
2022-09-01T12:10:45.314Z,25.75
2022-09-01T12:14:06.644Z,25.95
2022-09-01T12:17:13.024Z,25.91
2022-09-01T12:20:29.232Z,25.91
2022-09-01T12:23:40.135Z,26.10
2022-09-01T12:26:42.255Z,26.22
2022-09-01T12:29:44.393Z,26.15
2022-09-01T12:32:46.726Z,26.13
2022-09-01T12:35:48.693Z,26.00
2022-09-01T12:38:52.290Z,25.65
2022-09-01T12:42:41.074Z,25.57
2022-09-01T12:45:47.744Z,25.74
2022-09-01T12:48:49.541Z,25.77
2022-09-01T12:52:27.467Z,26.10
2022-09-01T12:55:50.532Z,26.15
2022-09-01T12:59:14.135Z,26.18
2022-09-01T13:02:36.760Z,26.18
2022-09-01T13:05:42.376Z,26.18
2022-09-01T13:08:44.266Z,26.24
2022-09-01T13:12:06.598Z,26.13
2022-09-01T13:15:09.451Z,26.25
2022-09-01T13:18:11.681Z,26.45
2022-09-01T13:21:13.484Z,26.63
2022-09-01T13:24:14.944Z,26.70
2022-09-01T13:27:23.578Z,26.67
2022-09-01T13:30:28.757Z,26.58
2022-09-01T13:33:30.856Z,26.13
2022-09-01T13:36:52.871Z,26.20
2022-09-01T13:39:54.380Z,26.50
2022-09-01T13:42:55.905Z,26.70
2022-09-01T13:45:57.674Z,26.95
2022-09-01T13:49:04.474Z,27.10
2022-09-01T13:52:21.794Z,27.32
2022-09-01T13:55:26.593Z,26.88
2022-09-01T13:58:28.068Z,26.45
2022-09-01T14:01:29.688Z,26.55
2022-09-01T14:04:31.249Z,26.82
2022-09-01T14:07:32.716Z,27.16
2022-09-01T14:10:41.635Z,27.14
2022-09-01T14:13:45.570Z,26.83
2022-09-01T14:16:47.063Z,26.69
2022-09-01T14:19:51.852Z,26.74
2022-09-01T14:22:53.292Z,27.00
2022-09-01T14:25:54.731Z,26.87
2022-09-01T14:28:56.159Z,26.69
2022-09-01T14:31:57.572Z,26.52
2022-09-01T14:34:59.786Z,26.42
2022-09-01T14:38:03.036Z,26.91
2022-09-01T14:41:04.481Z,27.39
2022-09-01T14:44:06.244Z,27.13
2022-09-01T14:47:11.412Z,26.85
2022-09-01T14:50:19.860Z,26.98
2022-09-01T14:53:24.087Z,27.20
2022-09-01T14:56:25.984Z,26.90
2022-09-01T14:59:27.443Z,26.71
2022-09-01T15:02:29.170Z,26.41
2022-09-01T15:05:37.753Z,26.81
2022-09-01T15:08:42.551Z,27.28
2022-09-01T15:11:44.255Z,27.79
2022-09-01T15:14:47.192Z,28.25
2022-09-01T15:17:48.622Z,28.38
2022-09-01T15:20:51.017Z,28.26
2022-09-01T15:23:53.915Z,28.29
2022-09-01T15:26:55.428Z,28.25
2022-09-01T15:29:57.840Z,27.73
2022-09-01T15:32:59.347Z,27.93
2022-09-01T15:36:00.767Z,28.25
2022-09-01T15:39:02.485Z,28.33
2022-09-01T15:42:04.971Z,27.89
2022-09-01T15:45:15.093Z,27.28
2022-09-01T15:48:16.581Z,26.85
2022-09-01T15:51:23.960Z,26.65
2022-09-01T15:54:30.364Z,26.30
2022-09-01T15:57:32.214Z,25.89
2022-09-01T16:00:34.102Z,25.78
2022-09-01T16:03:35.668Z,26.00
2022-09-01T16:06:38.643Z,26.24
2022-09-01T16:09:40.587Z,26.52
2022-09-01T16:12:44.344Z,26.73
2022-09-01T16:15:56.822Z,26.62
2022-09-01T16:19:03.842Z,26.76
2022-09-01T16:22:16.256Z,26.72
2022-09-01T16:25:25.606Z,26.67
2022-09-01T16:28:31.285Z,26.72
2022-09-01T16:31:32.863Z,26.57
2022-09-01T16:34:34.628Z,26.56
2022-09-01T16:37:55.507Z,26.47
2022-09-01T16:41:05.446Z,26.19
2022-09-01T16:44:37.165Z,26.03
2022-09-01T16:48:00.617Z,25.99
2022-09-01T16:51:18.536Z,25.73
2022-09-01T16:54:51.401Z,25.66
2022-09-01T16:58:06.292Z,25.56
2022-09-01T17:01:38.491Z,25.39
2022-09-01T17:04:47.430Z,25.31
2022-09-01T17:08:24.817Z,25.28
2022-09-01T17:11:39.417Z,25.25
2022-09-01T17:14:47.927Z,25.15
2022-09-01T17:17:55.406Z,25.09
2022-09-01T17:21:12.566Z,25.07
2022-09-01T17:24:27.919Z,25.01
2022-09-01T17:27:31.916Z,24.99
2022-09-01T17:30:44.665Z,24.92
2022-09-01T17:34:03.434Z,24.75
2022-09-01T17:37:28.832Z,24.65
2022-09-01T17:40:58.935Z,24.65
2022-09-01T17:44:22.935Z,24.52
2022-09-01T17:47:46.848Z,24.47
2022-09-01T17:50:56.917Z,24.44
2022-09-01T17:54:24.024Z,24.36
2022-09-01T17:57:52.733Z,24.32
2022-09-01T18:01:10.686Z,24.18
2022-09-01T18:04:38.446Z,24.13
2022-09-01T18:07:57.106Z,24.09
2022-09-01T18:11:05.919Z,24.07
2022-09-01T18:14:14.464Z,24.03
2022-09-01T18:17:31.289Z,23.99
2022-09-01T18:20:43.540Z,23.90
2022-09-01T18:23:47.569Z,23.88
2022-09-01T18:26:50.867Z,23.83
2022-09-01T18:29:52.905Z,23.76
2022-09-01T18:33:13.920Z,23.66
2022-09-01T18:36:45.727Z,23.59
2022-09-01T18:40:18.059Z,23.53
2022-09-01T18:43:29.764Z,23.46
2022-09-01T18:46:49.487Z,23.43
2022-09-01T18:50:00.380Z,23.41
2022-09-01T18:53:26.395Z,23.41
2022-09-01T18:56:45.288Z,23.29
2022-09-01T19:00:04.027Z,23.29
2022-09-01T19:03:20.824Z,23.23
2022-09-01T19:06:46.427Z,23.17
2022-09-01T19:10:02.426Z,23.05
2022-09-01T19:13:18.722Z,22.95
2022-09-01T19:16:39.015Z,22.91
2022-09-01T19:19:49.715Z,22.82
2022-09-01T19:23:03.945Z,22.73
2022-09-01T19:26:11.418Z,22.72
2022-09-01T19:29:25.123Z,22.64
2022-09-01T19:32:29.520Z,22.57
2022-09-01T19:35:35.973Z,22.56
2022-09-01T19:38:39.349Z,22.53
2022-09-01T19:41:51.153Z,22.48
2022-09-01T19:45:08.359Z,22.42
2022-09-01T19:48:16.105Z,22.36
2022-09-01T19:51:26.008Z,22.35
2022-09-01T19:54:51.886Z,22.29
2022-09-01T19:58:02.565Z,22.23
2022-09-01T20:01:05.648Z,22.25
2022-09-01T20:04:38.728Z,22.19
2022-09-01T20:07:51.397Z,22.17
2022-09-01T20:11:01.174Z,22.15
2022-09-01T20:14:33.368Z,22.13
2022-09-01T20:17:48.247Z,22.17
2022-09-01T20:20:50.900Z,22.14
2022-09-01T20:24:02.644Z,22.04
2022-09-01T20:27:37.090Z,21.99
2022-09-01T20:30:51.009Z,21.92
2022-09-01T20:34:04.548Z,21.89
2022-09-01T20:37:42.369Z,21.89
2022-09-01T20:40:44.065Z,21.86
2022-09-01T20:43:51.307Z,21.80
2022-09-01T20:46:52.761Z,21.74
2022-09-01T20:49:54.624Z,21.68
2022-09-01T20:53:11.154Z,21.60
2022-09-01T20:56:29.352Z,21.58
2022-09-01T20:59:39.564Z,21.50
2022-09-01T21:03:19.888Z,21.46
2022-09-01T21:06:42.085Z,21.46
2022-09-01T21:10:09.626Z,21.40
2022-09-01T21:13:28.262Z,21.36
2022-09-01T21:16:54.378Z,21.33
2022-09-01T21:20:21.867Z,21.30
2022-09-01T21:23:23.564Z,21.24
2022-09-01T21:26:25.133Z,21.20
2022-09-01T21:29:50.800Z,21.19
2022-09-01T21:32:53.766Z,21.10
2022-09-01T21:35:55.704Z,21.05
2022-09-01T21:38:57.128Z,21.04
2022-09-01T21:41:58.694Z,21.04
2022-09-01T21:45:01.859Z,21.02
2022-09-01T21:48:04.773Z,21.01
2022-09-01T21:51:06.306Z,21.01
2022-09-01T21:54:08.983Z,20.98
2022-09-01T21:57:10.421Z,20.95
2022-09-01T22:00:19.338Z,20.94
2022-09-01T22:03:20.997Z,20.92
2022-09-01T22:06:23.238Z,20.91
2022-09-01T22:09:24.678Z,20.84
2022-09-01T22:12:26.121Z,20.79
2022-09-01T22:15:27.551Z,20.81
2022-09-01T22:18:29.091Z,20.75
2022-09-01T22:21:31.407Z,20.72
2022-09-01T22:24:32.826Z,20.72
2022-09-01T22:27:34.315Z,20.69
2022-09-01T22:30:36.262Z,20.62
2022-09-01T22:33:37.764Z,20.59
2022-09-01T22:36:44.019Z,20.53
2022-09-01T22:39:45.545Z,20.44
2022-09-01T22:42:47.059Z,20.40
2022-09-01T22:45:49.943Z,20.28
2022-09-01T22:48:51.549Z,20.22
2022-09-01T22:51:52.975Z,20.19
2022-09-01T22:54:54.445Z,20.18
2022-09-01T22:57:55.990Z,20.15
2022-09-01T23:00:59.242Z,20.16
2022-09-01T23:04:04.532Z,20.09
2022-09-01T23:07:07.083Z,20.05
2022-09-01T23:10:09.378Z,19.96
2022-09-01T23:13:10.850Z,19.96
2022-09-01T23:16:15.357Z,20.00
2022-09-01T23:19:18.222Z,19.98
2022-09-01T23:22:19.898Z,19.92
2022-09-01T23:25:21.410Z,19.86
2022-09-01T23:28:23.738Z,19.77
2022-09-01T23:31:33.391Z,19.76
2022-09-01T23:34:34.893Z,19.78
2022-09-01T23:37:36.329Z,19.74
2022-09-01T23:40:42.987Z,19.70
2022-09-01T23:43:44.573Z,19.62
2022-09-01T23:46:46.328Z,19.63
2022-09-01T23:49:47.792Z,19.58
2022-09-01T23:52:50.433Z,19.49
2022-09-01T23:55:54.554Z,19.48
2022-09-01T23:58:58.193Z,19.38
